createdAt,value
2022-12-12T00:01:37.465Z,7.42
2022-12-12T00:06:34.335Z,7.59
2022-12-12T00:11:31.956Z,7.56
2022-12-12T00:16:28.986Z,7.26
2022-12-12T00:21:28.556Z,7.43
2022-12-12T00:26:28.700Z,7.02
2022-12-12T00:31:26.828Z,7.14
2022-12-12T00:36:25.954Z,7.26
2022-12-12T00:41:23.359Z,7.23
2022-12-12T00:46:23.135Z,7.10
2022-12-12T00:51:22.835Z,7.17
2022-12-12T00:56:21.775Z,7.12
2022-12-12T01:01:22.923Z,6.79
2022-12-12T01:06:21.017Z,7.05
2022-12-12T01:11:18.957Z,6.85
2022-12-12T01:16:15.958Z,6.58
2022-12-12T01:21:15.164Z,6.69
2022-12-12T01:26:14.701Z,6.88
2022-12-12T01:31:12.414Z,6.85
2022-12-12T01:36:09.449Z,6.56
2022-12-12T01:41:06.513Z,6.80
2022-12-12T01:46:33.947Z,6.52
2022-12-12T01:51:31.582Z,6.62
2022-12-12T01:56:28.947Z,6.53
2022-12-12T02:01:26.134Z,6.71
2022-12-12T02:06:26.440Z,6.36
2022-12-12T02:11:23.363Z,6.53
2022-12-12T02:16:34.422Z,6.47
2022-12-12T02:21:40.682Z,6.57
2022-12-12T02:27:13.584Z,6.55
2022-12-12T02:32:23.755Z,6.52
2022-12-12T02:37:30.122Z,6.34
2022-12-12T02:42:31.452Z,6.27
2022-12-12T02:47:33.076Z,6.49
2022-12-12T02:52:30.293Z,6.54
2022-12-12T02:57:27.628Z,6.64
2022-12-12T03:02:45.653Z,6.66
2022-12-12T03:07:53.041Z,6.82
2022-12-12T03:12:59.760Z,6.76
2022-12-12T03:18:09.806Z,6.76
2022-12-12T03:23:13.592Z,6.63
2022-12-12T03:28:15.501Z,6.60
2022-12-12T03:33:20.082Z,6.53
2022-12-12T03:38:20.461Z,6.52
2022-12-12T03:43:21.684Z,6.40
2022-12-12T03:48:23.585Z,6.35
2022-12-12T03:53:27.244Z,6.41
2022-12-12T03:58:29.752Z,6.46
2022-12-12T04:03:34.403Z,6.24
2022-12-12T04:08:32.252Z,6.44
2022-12-12T04:13:34.195Z,6.43
2022-12-12T04:18:44.163Z,6.07
2022-12-12T04:23:54.491Z,6.27
2022-12-12T04:29:03.904Z,6.37
2022-12-12T04:34:07.854Z,6.05
2022-12-12T04:39:06.993Z,6.52
2022-12-12T04:44:09.735Z,6.63
2022-12-12T04:49:13.969Z,6.75
2022-12-12T04:54:16.075Z,6.67
2022-12-12T04:59:13.158Z,6.46
2022-12-12T05:04:17.780Z,6.53
2022-12-12T05:09:17.219Z,6.83
2022-12-12T05:14:15.842Z,6.66
2022-12-12T05:19:14.215Z,6.62
2022-12-12T05:24:16.210Z,6.70
2022-12-12T05:29:13.344Z,6.52
2022-12-12T05:34:10.203Z,6.07
2022-12-12T05:39:08.042Z,6.21
2022-12-12T05:44:06.182Z,6.37
2022-12-12T05:49:03.236Z,6.39
2022-12-12T05:54:00.095Z,6.37
2022-12-12T05:58:57.885Z,6.35
2022-12-12T06:03:55.053Z,6.32
2022-12-12T06:08:55.400Z,6.22
2022-12-12T06:13:52.542Z,6.32
2022-12-12T06:19:01.962Z,6.34
2022-12-12T06:24:04.938Z,6.16
2022-12-12T06:29:04.789Z,6.05
2022-12-12T06:34:02.778Z,5.71
2022-12-12T06:39:01.207Z,6.19
2022-12-12T06:43:58.855Z,6.46
2022-12-12T06:48:56.915Z,6.57
2022-12-12T06:53:55.302Z,6.34
2022-12-12T06:58:53.127Z,6.22
2022-12-12T07:03:51.175Z,6.73
2022-12-12T07:08:49.204Z,6.69
2022-12-12T07:13:47.357Z,6.78
2022-12-12T07:18:44.680Z,6.97
2022-12-12T07:23:42.247Z,7.07
2022-12-12T07:28:40.042Z,7.07
2022-12-12T07:33:43.797Z,7.21
2022-12-12T07:38:41.855Z,7.30
2022-12-12T07:43:44.686Z,7.19
2022-12-12T07:48:54.647Z,7.47
2022-12-12T07:53:53.132Z,7.56
2022-12-12T07:58:50.586Z,7.59
2022-12-12T08:03:49.204Z,7.30
2022-12-12T08:08:47.999Z,7.53
2022-12-12T08:13:45.398Z,7.70
2022-12-12T08:18:46.617Z,8.04
2022-12-12T08:23:45.283Z,8.19
2022-12-12T08:28:46.931Z,8.32
2022-12-12T08:33:44.480Z,8.16
2022-12-12T08:38:41.653Z,8.55
2022-12-12T08:43:40.949Z,8.65
2022-12-12T08:48:37.815Z,8.49
2022-12-12T08:53:35.628Z,8.60
2022-12-12T08:58:32.525Z,8.64
2022-12-12T09:03:30.486Z,8.65
2022-12-12T09:08:27.674Z,8.64
2022-12-12T09:13:25.310Z,8.76
2022-12-12T09:18:26.250Z,8.83
2022-12-12T09:23:25.094Z,8.85
2022-12-12T09:28:24.785Z,9.00
2022-12-12T09:33:26.206Z,8.74
2022-12-12T09:38:27.581Z,8.88
2022-12-12T09:43:29.890Z,9.16
2022-12-12T09:48:35.398Z,8.93
2022-12-12T09:53:36.828Z,9.34
2022-12-12T09:58:43.465Z,9.14
2022-12-12T10:04:02.025Z,9.02
2022-12-12T10:09:09.463Z,9.63
2022-12-12T10:14:12.477Z,9.46
2022-12-12T10:19:21.828Z,9.70
2022-12-12T10:24:30.101Z,9.66
2022-12-12T10:29:27.879Z,9.71
2022-12-12T10:34:39.383Z,9.61
2022-12-12T10:39:47.315Z,9.56
2022-12-12T10:45:28.818Z,9.58
2022-12-12T10:50:32.505Z,9.45
2022-12-12T10:55:44.252Z,9.55
2022-12-12T11:00:43.440Z,8.76
2022-12-12T11:05:41.269Z,9.80
2022-12-12T11:10:39.134Z,9.79
2022-12-12T11:15:41.153Z,10.47
2022-12-12T11:20:45.135Z,10.73
2022-12-12T11:25:43.380Z,10.92
2022-12-12T11:30:43.759Z,10.93
2022-12-12T11:35:47.417Z,10.95
2022-12-12T11:40:55.403Z,10.73
2022-12-12T11:46:00.262Z,11.30
2022-12-12T11:50:57.367Z,10.93
2022-12-12T11:56:06.867Z,11.21
2022-12-12T12:01:10.850Z,10.96
2022-12-12T12:06:30.248Z,11.19
2022-12-12T12:11:33.424Z,11.07
2022-12-12T12:16:46.083Z,10.74
2022-12-12T12:21:52.741Z,11.15
2022-12-12T12:27:02.824Z,10.96
2022-12-12T12:32:09.398Z,11.22
2022-12-12T12:37:24.009Z,11.24
2022-12-12T12:42:37.993Z,11.23
2022-12-12T12:47:46.950Z,10.92
2022-12-12T12:52:51.006Z,10.74
2022-12-12T12:57:50.721Z,11.04
2022-12-12T13:02:56.002Z,10.84
2022-12-12T13:07:59.775Z,10.49
2022-12-12T13:13:04.788Z,10.75
2022-12-12T13:18:04.235Z,10.49
2022-12-12T13:23:18.929Z,10.51
2022-12-12T13:28:23.842Z,10.29
2022-12-12T13:33:40.443Z,9.89
2022-12-12T13:38:38.080Z,10.17
2022-12-12T13:43:44.356Z,9.87
2022-12-12T13:48:47.387Z,9.98
2022-12-12T13:53:47.328Z,9.89
2022-12-12T13:58:45.105Z,9.95
2022-12-12T14:03:46.499Z,9.80
2022-12-12T14:08:49.110Z,9.76
2022-12-12T14:13:50.231Z,9.50
2022-12-12T14:19:01.685Z,9.48
2022-12-12T14:24:48.061Z,9.63
2022-12-12T14:29:45.895Z,9.69
2022-12-12T14:34:55.745Z,9.63
2022-12-12T14:40:01.098Z,9.55
2022-12-12T14:44:57.991Z,9.50
2022-12-12T14:50:11.238Z,9.44
2022-12-12T14:55:15.341Z,9.30
2022-12-12T15:00:17.361Z,9.43
2022-12-12T15:05:14.997Z,9.27
2022-12-12T15:10:24.130Z,9.16
2022-12-12T15:15:26.531Z,9.20
2022-12-12T15:20:25.767Z,9.03
2022-12-12T15:25:28.797Z,8.64
2022-12-12T15:30:32.043Z,8.85
2022-12-12T15:35:29.189Z,8.72
2022-12-12T15:40:29.568Z,9.33
2022-12-12T15:45:32.082Z,9.34
2022-12-12T15:50:36.363Z,9.33
2022-12-12T15:55:36.395Z,8.97
2022-12-12T16:00:37.337Z,9.22
2022-12-12T16:05:38.600Z,8.96
2022-12-12T16:10:36.495Z,8.71
2022-12-12T16:15:35.743Z,9.09
2022-12-12T16:20:34.261Z,9.15
2022-12-12T16:25:32.003Z,8.63
2022-12-12T16:30:29.739Z,9.01
2022-12-12T16:35:26.600Z,9.06
2022-12-12T16:40:23.496Z,8.93
2022-12-12T16:45:20.373Z,8.98
2022-12-12T16:50:18.082Z,8.98
2022-12-12T16:55:19.466Z,8.72
2022-12-12T17:00:17.295Z,8.71
2022-12-12T17:05:23.214Z,8.68
2022-12-12T17:10:23.888Z,8.69
2022-12-12T17:15:23.667Z,8.66
2022-12-12T17:20:22.115Z,8.67
2022-12-12T17:25:20.883Z,8.09
2022-12-12T17:30:18.317Z,8.52
2022-12-12T17:35:15.285Z,7.73
2022-12-12T17:40:13.495Z,8.34
2022-12-12T17:45:11.144Z,8.23
2022-12-12T17:50:10.848Z,8.17
2022-12-12T17:55:51.409Z,8.03
2022-12-12T18:00:26.344Z,7.61
2022-12-12T18:05:23.891Z,7.85
2022-12-12T18:10:20.849Z,7.68
2022-12-12T18:15:18.413Z,7.74
2022-12-12T18:20:19.505Z,7.55
2022-12-12T18:25:17.957Z,7.62
2022-12-12T18:30:15.362Z,7.38
2022-12-12T18:35:12.755Z,7.47
2022-12-12T18:40:11.415Z,7.66
2022-12-12T18:45:09.401Z,7.61
2022-12-12T18:50:07.263Z,7.26
2022-12-12T18:55:04.944Z,7.56
2022-12-12T19:00:06.015Z,7.16
2022-12-12T19:05:03.402Z,7.51
2022-12-12T19:10:00.379Z,7.35
2022-12-12T19:20:16.573Z,7.34
2022-12-12T19:25:14.310Z,7.16
2022-12-12T19:30:13.244Z,7.29
2022-12-12T19:35:11.788Z,7.25
2022-12-12T19:40:11.165Z,7.19
2022-12-12T19:45:09.617Z,6.85
2022-12-12T19:50:07.233Z,7.08
2022-12-12T19:55:04.685Z,7.01
2022-12-12T20:00:03.332Z,6.97
2022-12-12T20:05:06.345Z,6.86
2022-12-12T20:10:04.345Z,6.61
2022-12-12T20:15:02.142Z,6.35
2022-12-12T20:20:01.426Z,6.67
2022-12-12T20:24:58.892Z,6.44
2022-12-12T20:29:56.277Z,6.36
2022-12-12T20:34:53.506Z,6.36
2022-12-12T20:39:51.610Z,6.30
2022-12-12T20:44:49.429Z,6.20
2022-12-12T20:49:47.654Z,6.28
2022-12-12T20:54:44.777Z,6.15
2022-12-12T20:59:42.564Z,6.03
2022-12-12T21:04:39.889Z,5.65
2022-12-12T21:09:37.605Z,5.77
2022-12-12T21:14:40.567Z,5.87
2022-12-12T21:19:38.875Z,5.63
2022-12-12T21:24:36.030Z,5.25
2022-12-12T21:29:33.394Z,5.74
2022-12-12T21:34:30.609Z,5.44
2022-12-12T21:39:29.365Z,5.70
2022-12-12T21:44:26.734Z,5.34
2022-12-12T21:49:26.945Z,5.63
2022-12-12T21:54:25.000Z,5.38
2022-12-12T21:59:23.992Z,5.23
2022-12-12T22:04:21.323Z,5.48
2022-12-12T22:09:18.545Z,5.25
2022-12-12T22:14:16.691Z,4.89
2022-12-12T22:19:16.254Z,5.00
2022-12-12T22:24:15.038Z,4.83
2022-12-12T22:29:14.155Z,4.92
2022-12-12T22:34:13.271Z,4.87
2022-12-12T22:39:14.716Z,4.64
2022-12-12T22:44:15.825Z,4.16
2022-12-12T22:49:14.630Z,4.70
2022-12-12T22:54:13.091Z,4.58
2022-12-12T22:59:12.318Z,4.18
2022-12-12T23:04:11.672Z,3.96
2022-12-12T23:09:14.401Z,4.05
2022-12-12T23:14:14.546Z,4.33
2022-12-12T23:19:14.086Z,4.38
2022-12-12T23:24:11.283Z,4.60
2022-12-12T23:29:12.204Z,4.63
2022-12-12T23:34:14.307Z,4.76
2022-12-12T23:39:13.777Z,4.61
2022-12-12T23:44:13.103Z,4.62
2022-12-12T23:49:15.570Z,4.26
2022-12-12T23:54:14.024Z,4.86
2022-12-12T23:59:17.417Z,4.77
